createdAt,value
2018-05-29T00:00:01.690Z,14.40
2018-05-29T00:02:30.264Z,16.57
2018-05-29T00:04:58.924Z,15.80
2018-05-29T00:07:27.271Z,16.37
2018-05-29T00:09:56.667Z,15.80
2018-05-29T00:12:25.919Z,14.37
2018-05-29T00:14:54.242Z,15.90
2018-05-29T00:17:23.405Z,16.85
2018-05-29T00:19:51.775Z,17.43
2018-05-29T00:22:20.584Z,15.80
2018-05-29T00:24:48.937Z,15.55
2018-05-29T00:27:18.266Z,15.77
2018-05-29T00:29:47.409Z,15.73
2018-05-29T00:32:15.808Z,15.23
2018-05-29T00:34:44.146Z,18.10
2018-05-29T00:37:14.485Z,16.43
2018-05-29T00:39:42.917Z,13.90
2018-05-29T00:42:12.575Z,14.70
2018-05-29T00:44:40.916Z,14.47
2018-05-29T00:47:10.255Z,15.53
2018-05-29T00:49:38.575Z,14.37
2018-05-29T00:52:07.251Z,14.85
2018-05-29T00:54:35.680Z,13.98
2018-05-29T00:57:04.029Z,13.65
2018-05-29T00:59:32.361Z,15.75
2018-05-29T01:02:00.933Z,14.47
2018-05-29T01:04:29.256Z,13.63
2018-05-29T01:06:57.824Z,13.73
2018-05-29T01:09:26.391Z,13.20
2018-05-29T01:11:54.941Z,13.07
2018-05-29T01:14:23.274Z,15.43
2018-05-29T01:16:52.857Z,14.87
2018-05-29T01:19:21.200Z,17.60
2018-05-29T01:21:49.734Z,16.23
2018-05-29T01:24:19.054Z,17.17
2018-05-29T01:26:47.576Z,15.05
2018-05-29T01:29:15.962Z,14.48
2018-05-29T01:31:44.360Z,15.50
2018-05-29T01:34:13.547Z,15.07
2018-05-29T01:36:41.842Z,18.47
2018-05-29T01:39:11.201Z,18.77
2018-05-29T01:41:39.527Z,17.73
2018-05-29T01:44:08.151Z,16.53
2018-05-29T01:46:36.647Z,16.40
2018-05-29T01:49:05.023Z,17.70
2018-05-29T01:51:33.449Z,18.93
2018-05-29T01:54:01.832Z,18.73
2018-05-29T01:56:30.492Z,15.17
2018-05-29T01:58:58.816Z,17.40
2018-05-29T02:01:27.127Z,19.13
2018-05-29T02:03:57.134Z,19.93
2018-05-29T02:06:26.326Z,19.93
2018-05-29T02:08:54.641Z,22.17
2018-05-29T02:11:24.052Z,20.60
2018-05-29T02:13:52.382Z,19.83
2018-05-29T02:16:20.806Z,20.63
2018-05-29T02:18:49.218Z,20.17
2018-05-29T02:21:17.831Z,21.70
2018-05-29T02:23:46.362Z,22.15
2018-05-29T02:26:14.700Z,19.23
2018-05-29T02:28:43.814Z,22.93
2018-05-29T02:31:12.206Z,21.65
2018-05-29T02:33:40.572Z,21.17
2018-05-29T02:36:09.170Z,20.73
2018-05-29T02:38:37.540Z,19.87
2018-05-29T02:41:05.891Z,20.13
2018-05-29T02:43:36.170Z,22.47
2018-05-29T02:46:04.477Z,21.87
2018-05-29T02:48:33.700Z,17.00
2018-05-29T02:51:02.031Z,19.33
2018-05-29T02:53:30.806Z,19.37
2018-05-29T02:55:59.360Z,25.27
2018-05-29T02:58:27.702Z,17.77
2018-05-29T03:00:56.804Z,22.53
2018-05-29T03:03:25.912Z,19.12
2018-05-29T03:05:54.280Z,24.00
2018-05-29T03:08:23.612Z,27.33
2018-05-29T03:10:52.277Z,22.77
2018-05-29T03:13:20.761Z,25.87
2018-05-29T03:15:49.211Z,24.87
2018-05-29T03:18:19.486Z,24.20
2018-05-29T03:20:48.052Z,25.23
2018-05-29T03:23:16.511Z,25.23
2018-05-29T03:25:44.958Z,23.47
2018-05-29T03:28:14.192Z,21.03
2018-05-29T03:30:42.531Z,20.40
2018-05-29T03:33:11.136Z,18.95
2018-05-29T03:35:39.470Z,17.75
2018-05-29T03:38:07.960Z,18.67
2018-05-29T03:40:36.851Z,19.23
2018-05-29T03:43:05.457Z,24.10
2018-05-29T03:45:33.846Z,18.67
2018-05-29T03:48:02.200Z,22.07
2018-05-29T03:50:31.806Z,20.85
2018-05-29T03:53:02.298Z,20.60
2018-05-29T03:55:30.738Z,21.30
2018-05-29T03:57:59.031Z,22.50
2018-05-29T04:00:27.326Z,15.90
2018-05-29T04:02:55.743Z,15.23
2018-05-29T04:05:24.243Z,16.77
2018-05-29T04:07:52.801Z,16.87
2018-05-29T04:10:21.961Z,18.58
2018-05-29T04:12:50.303Z,16.85
2018-05-29T04:15:18.671Z,20.07
2018-05-29T04:17:46.990Z,20.90
2018-05-29T04:20:15.570Z,19.40
2018-05-29T04:22:45.332Z,17.65
2018-05-29T04:25:13.729Z,19.37
2018-05-29T04:27:42.013Z,19.07
2018-05-29T04:30:10.467Z,18.37
2018-05-29T04:32:39.061Z,25.70
2018-05-29T04:35:07.480Z,30.63
2018-05-29T04:37:37.632Z,30.63
2018-05-29T04:40:07.062Z,25.70
2018-05-29T04:42:35.415Z,28.17
2018-05-29T04:45:04.517Z,24.87
2018-05-29T04:47:33.172Z,27.10
2018-05-29T04:50:01.624Z,32.15
2018-05-29T04:52:30.074Z,33.53
2018-05-29T04:54:58.451Z,30.90
2018-05-29T04:57:26.815Z,37.43
2018-05-29T04:59:55.141Z,30.50
2018-05-29T05:02:23.563Z,34.67
2018-05-29T05:04:52.121Z,36.90
2018-05-29T05:07:20.458Z,27.27
2018-05-29T05:09:48.813Z,32.70
2018-05-29T05:12:17.144Z,32.17
2018-05-29T05:14:45.777Z,35.93
2018-05-29T05:17:14.457Z,28.53
2018-05-29T05:19:42.831Z,32.47
2018-05-29T05:22:11.292Z,28.50
2018-05-29T05:24:40.738Z,26.13
2018-05-29T05:27:09.183Z,29.00
2018-05-29T05:29:38.517Z,29.57
2018-05-29T05:32:06.954Z,29.30
2018-05-29T05:34:36.253Z,30.83
2018-05-29T05:37:04.632Z,24.73
2018-05-29T05:39:33.531Z,29.47
2018-05-29T05:42:01.877Z,26.40
2018-05-29T05:44:31.114Z,27.50
2018-05-29T05:46:59.468Z,25.23
2018-05-29T05:49:27.799Z,26.15
2018-05-29T05:51:56.221Z,28.83
2018-05-29T05:54:24.691Z,27.20
2018-05-29T05:56:54.283Z,27.90
2018-05-29T05:59:23.727Z,26.50
2018-05-29T06:01:52.177Z,23.83
2018-05-29T06:04:21.347Z,34.20
2018-05-29T06:06:51.306Z,72.47
2018-05-29T06:09:19.809Z,33.93
2018-05-29T06:11:48.406Z,25.73
2018-05-29T06:14:16.771Z,35.03
2018-05-29T06:16:45.128Z,32.95
2018-05-29T06:19:13.464Z,39.58
2018-05-29T06:21:41.863Z,36.53
2018-05-29T06:24:10.978Z,27.40
2018-05-29T06:26:39.508Z,29.10
2018-05-29T06:29:07.916Z,29.10
2018-05-29T06:31:36.652Z,26.67
2018-05-29T06:34:05.012Z,22.30
2018-05-29T06:36:33.958Z,25.10
2018-05-29T06:39:03.018Z,18.87
2018-05-29T06:41:31.583Z,17.50
2018-05-29T06:43:59.868Z,22.75
2018-05-29T06:46:28.442Z,18.12
2018-05-29T06:48:56.791Z,18.27
2018-05-29T06:51:25.323Z,20.30
2018-05-29T06:53:53.632Z,23.73
2018-05-29T06:56:22.011Z,19.07
2018-05-29T06:58:50.406Z,22.23
2018-05-29T07:01:19.824Z,23.83
2018-05-29T07:03:48.278Z,16.53
2018-05-29T07:06:16.755Z,16.23
2018-05-29T07:08:45.059Z,17.37
2018-05-29T07:11:13.433Z,16.90
2018-05-29T07:13:41.751Z,17.23
2018-05-29T07:16:10.207Z,18.33
2018-05-29T07:18:38.546Z,18.55
2018-05-29T07:21:07.076Z,14.60
2018-05-29T07:23:36.393Z,16.08
2018-05-29T07:26:05.612Z,15.97
2018-05-29T07:28:34.133Z,17.50
2018-05-29T07:31:02.458Z,14.93
2018-05-29T07:33:32.817Z,18.93
2018-05-29T07:36:01.192Z,20.27
2018-05-29T07:38:29.697Z,15.17
2018-05-29T07:40:58.127Z,13.97
2018-05-29T07:43:26.472Z,17.33
2018-05-29T07:45:54.991Z,14.33
2018-05-29T07:48:23.347Z,15.90
2018-05-29T07:50:52.496Z,13.85
2018-05-29T07:53:21.066Z,13.10
2018-05-29T07:55:49.545Z,12.90
2018-05-29T07:58:17.871Z,17.42
2018-05-29T08:00:47.015Z,12.90
2018-05-29T08:03:15.453Z,16.40
2018-05-29T08:05:44.573Z,13.60
2018-05-29T08:08:12.946Z,11.43
2018-05-29T08:10:41.479Z,15.43
2018-05-29T08:13:09.967Z,15.73
2018-05-29T08:15:38.476Z,13.90
2018-05-29T08:18:06.777Z,12.17
2018-05-29T08:20:35.171Z,14.60
2018-05-29T08:23:03.532Z,18.03
2018-05-29T08:25:31.903Z,10.75
2018-05-29T08:28:00.412Z,15.80
2018-05-29T08:30:28.862Z,16.97
2018-05-29T08:32:57.941Z,15.97
2018-05-29T08:35:26.438Z,13.13
2018-05-29T08:37:54.856Z,12.47
2018-05-29T08:40:23.393Z,19.03
2018-05-29T08:42:52.942Z,13.43
2018-05-29T08:45:21.313Z,13.40
2018-05-29T08:47:50.487Z,13.37
2018-05-29T08:50:18.954Z,12.40
2018-05-29T08:52:47.447Z,13.23
2018-05-29T08:55:15.978Z,12.05
2018-05-29T08:57:45.239Z,17.40
2018-05-29T09:00:13.661Z,11.67
2018-05-29T09:02:42.899Z,12.05
2018-05-29T09:05:11.300Z,14.43
2018-05-29T09:07:39.884Z,11.93
2018-05-29T09:10:10.127Z,15.77
2018-05-29T09:12:40.563Z,12.67
2018-05-29T09:15:09.053Z,15.10
2018-05-29T09:17:37.600Z,10.47
2018-05-29T09:20:05.983Z,13.03
2018-05-29T09:22:35.332Z,10.73
2018-05-29T09:25:04.658Z,10.17
2018-05-29T09:27:33.113Z,13.90
2018-05-29T09:30:01.511Z,14.27
2018-05-29T09:32:29.828Z,13.03
2018-05-29T09:34:59.232Z,11.03
2018-05-29T09:37:27.959Z,10.15
2018-05-29T09:39:57.199Z,12.05
2018-05-29T09:42:26.517Z,9.57
2018-05-29T09:44:55.636Z,9.97
2018-05-29T09:47:25.728Z,11.80
2018-05-29T09:49:56.034Z,9.57
2018-05-29T09:52:25.133Z,9.90
2018-05-29T09:54:53.551Z,9.30
2018-05-29T09:57:21.865Z,9.77
2018-05-29T09:59:50.192Z,11.20
2018-05-29T10:02:18.784Z,10.25
2018-05-29T10:04:47.228Z,13.40
2018-05-29T10:07:15.817Z,12.57
2018-05-29T10:09:44.136Z,11.17
2018-05-29T10:12:12.512Z,10.20
2018-05-29T10:14:40.879Z,8.40
2018-05-29T10:17:09.552Z,13.83
2018-05-29T10:19:37.923Z,9.00
2018-05-29T10:22:06.294Z,9.90
2018-05-29T10:24:34.639Z,9.07
2018-05-29T10:27:03.047Z,9.70
2018-05-29T10:29:31.803Z,10.90
2018-05-29T10:32:00.139Z,10.67
2018-05-29T10:34:28.494Z,9.97
2018-05-29T10:36:56.972Z,12.57
2018-05-29T10:39:25.487Z,11.23
2018-05-29T10:41:53.988Z,9.87
2018-05-29T10:44:22.519Z,13.20
2018-05-29T10:46:51.113Z,10.47
2018-05-29T10:49:19.454Z,10.17
2018-05-29T10:51:50.043Z,12.87
2018-05-29T10:54:18.454Z,13.47
2018-05-29T10:56:47.688Z,12.47
2018-05-29T10:59:16.163Z,13.97
2018-05-29T11:01:44.713Z,10.63
2018-05-29T11:04:13.192Z,11.32
2018-05-29T11:06:42.431Z,12.43
2018-05-29T11:09:10.855Z,11.60
2018-05-29T11:11:39.401Z,11.80
2018-05-29T11:14:07.844Z,9.80
2018-05-29T11:16:36.352Z,11.13
2018-05-29T11:19:04.664Z,11.87
2018-05-29T11:21:33.039Z,10.73
2018-05-29T11:24:01.394Z,14.07
2018-05-29T11:26:29.858Z,11.90
2018-05-29T11:28:58.355Z,11.27
2018-05-29T11:31:26.907Z,12.57
2018-05-29T11:33:55.494Z,11.30
2018-05-29T11:36:24.059Z,10.40
2018-05-29T11:38:52.598Z,11.50
2018-05-29T11:41:20.943Z,14.23
2018-05-29T11:43:49.413Z,13.30
2018-05-29T11:46:17.930Z,13.40
2018-05-29T11:48:46.391Z,10.77
2018-05-29T11:51:15.213Z,12.37
2018-05-29T11:53:45.763Z,14.17
2018-05-29T11:56:14.121Z,10.80
2018-05-29T11:58:43.283Z,11.80
2018-05-29T12:01:11.640Z,13.07
2018-05-29T12:03:39.957Z,11.07
2018-05-29T12:06:08.381Z,11.00
2018-05-29T12:08:36.833Z,10.47
2018-05-29T12:11:06.068Z,10.95
2018-05-29T12:13:34.534Z,11.83
2018-05-29T12:16:02.929Z,11.88
2018-05-29T12:18:31.304Z,15.27
2018-05-29T12:20:59.670Z,13.63
2018-05-29T12:23:28.018Z,9.93
2018-05-29T12:25:58.439Z,14.73
2018-05-29T12:28:26.845Z,13.23
2018-05-29T12:30:55.333Z,12.13
2018-05-29T12:33:23.648Z,10.30
2018-05-29T12:35:51.951Z,9.80
2018-05-29T12:38:21.160Z,11.80
2018-05-29T12:40:49.485Z,11.32
2018-05-29T12:43:17.938Z,14.37
2018-05-29T12:45:46.276Z,11.47
2018-05-29T12:48:14.883Z,12.10
2018-05-29T12:50:43.260Z,9.20
2018-05-29T12:53:11.667Z,10.23
2018-05-29T12:55:41.904Z,13.73
2018-05-29T12:58:10.450Z,10.80
2018-05-29T13:00:39.125Z,10.67
2018-05-29T13:03:07.475Z,10.87
2018-05-29T13:05:36.583Z,10.37
2018-05-29T13:08:04.985Z,10.63
2018-05-29T13:10:33.562Z,13.93
2018-05-29T13:13:01.953Z,11.23
2018-05-29T13:15:30.445Z,15.43
2018-05-29T13:17:58.797Z,16.58
2018-05-29T13:20:27.140Z,19.73
2018-05-29T13:22:56.272Z,16.03
2018-05-29T13:25:24.659Z,14.90
2018-05-29T13:27:54.775Z,10.87
2018-05-29T13:30:23.084Z,10.93
2018-05-29T13:32:51.485Z,18.07
2018-05-29T13:35:20.628Z,19.00
2018-05-29T13:37:49.164Z,18.63
2018-05-29T13:40:18.359Z,14.33
2018-05-29T13:42:47.500Z,10.77
2018-05-29T13:45:15.876Z,12.27
2018-05-29T13:47:44.419Z,13.03
2018-05-29T13:50:12.924Z,13.45
2018-05-29T13:52:41.294Z,11.85
2018-05-29T13:55:09.869Z,13.47
2018-05-29T13:57:38.209Z,12.40
2018-05-29T14:00:08.053Z,8.82
2018-05-29T14:02:36.563Z,8.10
2018-05-29T14:05:05.084Z,8.30
2018-05-29T14:07:33.518Z,8.07
2018-05-29T14:10:01.966Z,13.23
2018-05-29T14:12:30.316Z,10.77
2018-05-29T14:14:58.865Z,9.67
2018-05-29T14:17:27.295Z,11.83
2018-05-29T14:19:55.825Z,14.50
2018-05-29T14:22:24.228Z,14.87
2018-05-29T14:24:52.770Z,12.75
2018-05-29T14:27:21.120Z,12.10
2018-05-29T14:29:49.662Z,17.53
2018-05-29T14:32:20.794Z,11.00
2018-05-29T14:34:49.165Z,15.37
2018-05-29T14:37:17.504Z,13.73
2018-05-29T14:39:45.928Z,10.50
2018-05-29T14:42:15.069Z,8.30
2018-05-29T14:44:43.561Z,9.25
2018-05-29T14:47:12.081Z,11.60
2018-05-29T14:49:41.456Z,8.90
2018-05-29T14:52:09.981Z,10.98
2018-05-29T14:54:38.360Z,8.63
2018-05-29T14:57:06.746Z,11.90
2018-05-29T14:59:35.960Z,8.67
2018-05-29T15:02:04.573Z,11.37
2018-05-29T15:04:32.969Z,11.50
2018-05-29T15:07:01.645Z,14.17
2018-05-29T15:09:30.385Z,7.63
2018-05-29T15:11:59.070Z,8.93
2018-05-29T15:14:27.756Z,11.83
2018-05-29T15:16:56.151Z,10.93
2018-05-29T15:19:24.799Z,10.83
2018-05-29T15:21:54.073Z,10.68
2018-05-29T15:24:22.498Z,8.90
2018-05-29T15:26:51.005Z,12.63
2018-05-29T15:29:19.781Z,12.53
2018-05-29T15:31:48.300Z,7.73
2018-05-29T15:34:16.702Z,8.30
2018-05-29T15:36:45.920Z,8.57
2018-05-29T15:39:16.166Z,12.30
2018-05-29T15:41:44.767Z,14.10
2018-05-29T15:44:13.205Z,9.57
2018-05-29T15:46:42.706Z,8.87
2018-05-29T15:49:11.050Z,9.43
2018-05-29T15:51:40.209Z,7.77
2018-05-29T15:54:08.685Z,12.50
2018-05-29T15:56:37.186Z,8.23
2018-05-29T15:59:05.620Z,12.50
2018-05-29T16:01:34.063Z,9.75
2018-05-29T16:04:02.424Z,10.43
2018-05-29T16:06:30.771Z,12.68
2018-05-29T16:08:59.249Z,9.10
2018-05-29T16:11:27.615Z,10.57
2018-05-29T16:13:57.664Z,11.80
2018-05-29T16:16:27.752Z,9.10
2018-05-29T16:18:58.013Z,9.38
2018-05-29T16:21:27.855Z,11.35
2018-05-29T16:23:58.180Z,11.27
2018-05-29T16:26:28.068Z,9.95
2018-05-29T16:28:58.025Z,9.23
2018-05-29T16:31:28.176Z,11.05
2018-05-29T16:33:58.157Z,8.52
2018-05-29T16:36:28.264Z,11.75
2018-05-29T16:38:58.325Z,11.50
2018-05-29T16:41:26.890Z,10.23
2018-05-29T16:43:57.447Z,10.13
2018-05-29T16:46:26.871Z,10.57
2018-05-29T16:48:56.910Z,11.10
2018-05-29T16:51:25.362Z,10.23
2018-05-29T16:53:53.902Z,9.50
2018-05-29T16:56:22.403Z,12.83
2018-05-29T16:58:51.280Z,10.73
2018-05-29T17:01:21.549Z,10.33
2018-05-29T17:03:50.000Z,10.87
2018-05-29T17:06:18.441Z,9.10
2018-05-29T17:08:47.034Z,10.50
2018-05-29T17:11:15.469Z,10.47
2018-05-29T17:13:44.599Z,11.95
2018-05-29T17:16:13.069Z,11.47
2018-05-29T17:18:41.823Z,7.90
2018-05-29T17:21:10.259Z,11.35
2018-05-29T17:23:38.592Z,10.65
2018-05-29T17:26:07.096Z,8.53
2018-05-29T17:28:35.654Z,8.20
2018-05-29T17:31:04.082Z,8.50
2018-05-29T17:33:32.462Z,10.50
2018-05-29T17:36:00.992Z,10.73
2018-05-29T17:38:30.249Z,7.80
2018-05-29T17:40:58.721Z,9.40
2018-05-29T17:43:27.205Z,8.57
2018-05-29T17:45:55.691Z,8.63
2018-05-29T17:48:24.051Z,9.07
2018-05-29T17:50:52.717Z,8.20
2018-05-29T17:53:21.287Z,10.13
2018-05-29T17:55:49.883Z,9.03
2018-05-29T17:58:18.304Z,9.45
2018-05-29T18:00:47.149Z,8.87
2018-05-29T18:03:15.587Z,7.80
2018-05-29T18:05:43.987Z,8.50
2018-05-29T18:08:12.675Z,7.97
2018-05-29T18:10:41.367Z,7.63
2018-05-29T18:13:10.187Z,9.83
2018-05-29T18:15:39.359Z,8.20
2018-05-29T18:18:07.883Z,8.70
2018-05-29T18:20:37.336Z,10.50
2018-05-29T18:23:06.325Z,10.10
2018-05-29T18:25:35.331Z,8.63
2018-05-29T18:28:03.798Z,8.03
2018-05-29T18:30:32.206Z,10.17
2018-05-29T18:33:00.771Z,7.53
2018-05-29T18:35:29.390Z,8.43
2018-05-29T18:37:58.528Z,10.30
2018-05-29T18:40:26.979Z,9.90
2018-05-29T18:42:55.532Z,9.37
2018-05-29T18:45:24.144Z,8.07
2018-05-29T18:47:53.503Z,9.03
2018-05-29T18:50:21.850Z,7.97
2018-05-29T18:52:50.232Z,7.80
2018-05-29T18:55:18.740Z,8.73
2018-05-29T18:57:47.260Z,9.90
2018-05-29T19:00:16.451Z,9.50
2018-05-29T19:02:45.727Z,8.60
2018-05-29T19:05:14.211Z,8.88
2018-05-29T19:07:42.714Z,9.30
2018-05-29T19:10:11.836Z,8.55
2018-05-29T19:12:40.365Z,9.07
2018-05-29T19:15:08.735Z,8.67
2018-05-29T19:17:38.401Z,7.60
2018-05-29T19:20:06.797Z,8.90
2018-05-29T19:22:35.330Z,8.00
2018-05-29T19:25:04.741Z,8.37
2018-05-29T19:27:33.118Z,7.23
2018-05-29T19:30:01.454Z,6.90
2018-05-29T19:32:29.839Z,7.93
2018-05-29T19:34:58.180Z,7.55
2018-05-29T19:37:26.685Z,8.47
2018-05-29T19:39:55.181Z,7.43
2018-05-29T19:42:24.304Z,7.50
2018-05-29T19:44:52.827Z,7.65
2018-05-29T19:47:21.154Z,10.20
2018-05-29T19:49:50.330Z,11.27
2018-05-29T19:52:19.540Z,10.13
2018-05-29T19:54:48.660Z,9.87
2018-05-29T19:57:17.002Z,8.00
2018-05-29T19:59:46.108Z,8.80
2018-05-29T20:02:15.199Z,8.60
2018-05-29T20:04:44.489Z,9.73
2018-05-29T20:07:13.727Z,8.68
2018-05-29T20:09:42.120Z,8.95
2018-05-29T20:12:10.541Z,9.90
2018-05-29T20:14:38.990Z,10.80
2018-05-29T20:17:07.837Z,10.93
2018-05-29T20:19:36.345Z,12.43
2018-05-29T20:22:04.981Z,12.50
2018-05-29T20:24:33.620Z,14.57
2018-05-29T20:27:02.407Z,11.70
2018-05-29T20:29:31.059Z,15.17
2018-05-29T20:31:59.450Z,14.20
2018-05-29T20:34:28.345Z,13.63
2018-05-29T20:36:56.806Z,13.48
2018-05-29T20:39:25.460Z,13.40
2018-05-29T20:41:55.052Z,14.90
2018-05-29T20:44:24.489Z,11.93
2018-05-29T20:46:52.973Z,16.23
2018-05-29T20:49:21.316Z,16.45
2018-05-29T20:51:50.551Z,14.60
2018-05-29T20:54:19.140Z,16.23
2018-05-29T20:56:47.602Z,15.77
2018-05-29T20:59:17.626Z,16.25
2018-05-29T21:01:46.055Z,15.10
2018-05-29T21:04:14.577Z,23.50
2018-05-29T21:06:43.077Z,17.03
2018-05-29T21:09:11.575Z,19.87
2018-05-29T21:11:39.890Z,19.07
2018-05-29T21:14:09.036Z,18.87
2018-05-29T21:16:37.401Z,19.10
2018-05-29T21:19:05.760Z,17.98
2018-05-29T21:21:34.086Z,19.47
2018-05-29T21:24:02.634Z,18.10
2018-05-29T21:26:31.201Z,18.40
2018-05-29T21:28:59.622Z,21.90
2018-05-29T21:31:28.008Z,18.60
2018-05-29T21:33:56.330Z,21.87
2018-05-29T21:36:24.786Z,19.37
2018-05-29T21:38:53.860Z,21.57
2018-05-29T21:41:22.293Z,20.47
2018-05-29T21:43:50.969Z,21.63
2018-05-29T21:46:19.319Z,21.70
2018-05-29T21:48:48.471Z,21.70
2018-05-29T21:51:16.846Z,26.80
2018-05-29T21:53:45.241Z,22.90
2018-05-29T21:56:13.587Z,25.17
2018-05-29T21:58:42.007Z,24.70
2018-05-29T22:01:10.553Z,25.13
2018-05-29T22:03:38.896Z,24.07
2018-05-29T22:06:07.275Z,26.30
2018-05-29T22:08:35.876Z,22.83
2018-05-29T22:11:04.423Z,21.93
2018-05-29T22:13:32.787Z,22.97
2018-05-29T22:16:02.041Z,20.53
2018-05-29T22:18:30.372Z,22.00
2018-05-29T22:20:59.648Z,17.80
2018-05-29T22:23:28.157Z,18.70
2018-05-29T22:25:56.538Z,20.30
2018-05-29T22:28:25.271Z,17.80
2018-05-29T22:30:53.627Z,24.60
2018-05-29T22:33:22.186Z,21.47
2018-05-29T22:35:50.908Z,15.03
2018-05-29T22:38:19.390Z,14.90
2018-05-29T22:40:47.856Z,14.97
2018-05-29T22:43:16.576Z,15.87
2018-05-29T22:45:45.077Z,14.03
2018-05-29T22:48:14.255Z,13.70
2018-05-29T22:50:42.599Z,15.97
2018-05-29T22:53:11.158Z,13.93
2018-05-29T22:55:39.689Z,17.60
2018-05-29T22:58:08.133Z,15.93
2018-05-29T23:00:36.468Z,13.80
2018-05-29T23:03:06.709Z,11.27
2018-05-29T23:05:35.096Z,17.13
2018-05-29T23:08:03.423Z,18.43
2018-05-29T23:10:32.116Z,15.30
2018-05-29T23:13:00.597Z,14.00
2018-05-29T23:15:29.811Z,13.88
2018-05-29T23:17:58.196Z,12.95
2018-05-29T23:20:26.538Z,13.57
2018-05-29T23:22:55.144Z,14.73
2018-05-29T23:25:24.495Z,17.55
2018-05-29T23:27:52.972Z,12.63
2018-05-29T23:30:21.441Z,13.32
2018-05-29T23:32:49.873Z,16.57
2018-05-29T23:35:20.071Z,14.60
2018-05-29T23:37:48.661Z,10.20
2018-05-29T23:40:17.871Z,11.10
2018-05-29T23:42:47.164Z,12.63
2018-05-29T23:45:16.280Z,9.97
2018-05-29T23:47:44.740Z,17.23
2018-05-29T23:50:14.165Z,13.53
2018-05-29T23:52:42.514Z,10.93
2018-05-29T23:55:11.637Z,15.65
2018-05-29T23:57:40.245Z,13.32
